sensor_id;sensor_type;location;lat;lon;timestamp;temperature;humidity
42141;DHT22;27809;51.864;5.646;2024-02-15T00:01:55;12.60;99.90
42141;DHT22;27809;51.864;5.646;2024-02-15T00:04:20;12.50;99.90
42141;DHT22;27809;51.864;5.646;2024-02-15T00:06:46;12.50;99.90
42141;DHT22;27809;51.864;5.646;2024-02-15T00:09:11;12.50;99.90
42141;DHT22;27809;51.864;5.646;2024-02-15T00:11:37;12.50;99.90
42141;DHT22;27809;51.864;5.646;2024-02-15T00:14:04;12.50;99.90
42141;DHT22;27809;51.864;5.646;2024-02-15T00:16:30;12.50;99.90
42141;DHT22;27809;51.864;5.646;2024-02-15T00:18:56;12.50;99.90
42141;DHT22;27809;51.864;5.646;2024-02-15T00:21:22;12.50;99.90
42141;DHT22;27809;51.864;5.646;2024-02-15T00:23:48;12.50;99.90
42141;DHT22;27809;51.864;5.646;2024-02-15T00:26:14;12.50;99.90
42141;DHT22;27809;51.864;5.646;2024-02-15T00:28:43;12.50;99.90
42141;DHT22;27809;51.864;5.646;2024-02-15T00:31:08;12.40;99.90
42141;DHT22;27809;51.864;5.646;2024-02-15T00:33:34;12.40;99.90
42141;DHT22;27809;51.864;5.646;2024-02-15T00:36:04;12.40;99.90
42141;DHT22;27809;51.864;5.646;2024-02-15T00:38:31;12.40;99.90
42141;DHT22;27809;51.864;5.646;2024-02-15T00:40:57;12.40;99.90
42141;DHT22;27809;51.864;5.646;2024-02-15T00:43:24;12.40;99.90
42141;DHT22;27809;51.864;5.646;2024-02-15T00:45:50;12.40;99.90
42141;DHT22;27809;51.864;5.646;2024-02-15T00:48:15;12.40;99.90
42141;DHT22;27809;51.864;5.646;2024-02-15T00:50:41;12.40;99.90
42141;DHT22;27809;51.864;5.646;2024-02-15T00:53:06;12.40;99.90
42141;DHT22;27809;51.864;5.646;2024-02-15T00:55:32;12.40;99.90
42141;DHT22;27809;51.864;5.646;2024-02-15T00:57:57;12.40;99.90
42141;DHT22;27809;51.864;5.646;2024-02-15T01:00:23;12.40;99.90
42141;DHT22;27809;51.864;5.646;2024-02-15T01:02:49;12.40;99.90
42141;DHT22;27809;51.864;5.646;2024-02-15T01:05:15;12.40;99.90
42141;DHT22;27809;51.864;5.646;2024-02-15T01:07:41;12.40;99.90
42141;DHT22;27809;51.864;5.646;2024-02-15T01:10:07;12.40;99.90
42141;DHT22;27809;51.864;5.646;2024-02-15T01:12:33;12.40;99.90
42141;DHT22;27809;51.864;5.646;2024-02-15T01:14:59;12.40;99.90
42141;DHT22;27809;51.864;5.646;2024-02-15T01:17:24;12.40;99.90
42141;DHT22;27809;51.864;5.646;2024-02-15T01:19:50;12.40;99.90
42141;DHT22;27809;51.864;5.646;2024-02-15T01:22:16;12.50;99.90
42141;DHT22;27809;51.864;5.646;2024-02-15T01:24:42;12.50;99.90
42141;DHT22;27809;51.864;5.646;2024-02-15T01:27:07;12.50;99.90
42141;DHT22;27809;51.864;5.646;2024-02-15T01:29:34;12.50;99.90
42141;DHT22;27809;51.864;5.646;2024-02-15T01:32:00;12.50;99.90
42141;DHT22;27809;51.864;5.646;2024-02-15T01:34:28;12.50;99.90
42141;DHT22;27809;51.864;5.646;2024-02-15T01:36:53;12.50;99.90
42141;DHT22;27809;51.864;5.646;2024-02-15T01:39:19;12.50;99.90
42141;DHT22;27809;51.864;5.646;2024-02-15T01:41:48;12.50;99.90
42141;DHT22;27809;51.864;5.646;2024-02-15T01:44:17;12.50;99.90
42141;DHT22;27809;51.864;5.646;2024-02-15T01:46:44;12.50;99.90
42141;DHT22;27809;51.864;5.646;2024-02-15T01:49:11;12.50;99.90
42141;DHT22;27809;51.864;5.646;2024-02-15T01:51:37;12.50;99.90
42141;DHT22;27809;51.864;5.646;2024-02-15T01:54:03;12.50;99.90
42141;DHT22;27809;51.864;5.646;2024-02-15T01:56:30;12.50;99.90
42141;DHT22;27809;51.864;5.646;2024-02-15T01:58:57;12.50;99.90
42141;DHT22;27809;51.864;5.646;2024-02-15T02:01:23;12.50;99.90
42141;DHT22;27809;51.864;5.646;2024-02-15T02:03:49;12.50;99.90
42141;DHT22;27809;51.864;5.646;2024-02-15T02:06:16;12.50;99.90
42141;DHT22;27809;51.864;5.646;2024-02-15T02:08:41;12.50;99.90
42141;DHT22;27809;51.864;5.646;2024-02-15T02:11:07;12.50;99.90
42141;DHT22;27809;51.864;5.646;2024-02-15T02:13:33;12.50;99.90
42141;DHT22;27809;51.864;5.646;2024-02-15T02:15:58;12.50;99.90
42141;DHT22;27809;51.864;5.646;2024-02-15T02:18:25;12.50;99.90
42141;DHT22;27809;51.864;5.646;2024-02-15T02:20:51;12.50;99.90
42141;DHT22;27809;51.864;5.646;2024-02-15T02:23:17;12.50;99.90
42141;DHT22;27809;51.864;5.646;2024-02-15T02:25:46;12.50;99.90
42141;DHT22;27809;51.864;5.646;2024-02-15T02:28:14;12.50;99.90
42141;DHT22;27809;51.864;5.646;2024-02-15T02:30:42;12.50;99.90
42141;DHT22;27809;51.864;5.646;2024-02-15T02:33:13;12.50;99.90
42141;DHT22;27809;51.864;5.646;2024-02-15T02:35:47;12.50;99.90
42141;DHT22;27809;51.864;5.646;2024-02-15T02:38:14;12.40;99.90
42141;DHT22;27809;51.864;5.646;2024-02-15T02:40:40;12.40;99.90
42141;DHT22;27809;51.864;5.646;2024-02-15T02:43:06;12.40;99.90
42141;DHT22;27809;51.864;5.646;2024-02-15T02:45:32;12.30;99.90
42141;DHT22;27809;51.864;5.646;2024-02-15T02:47:58;12.20;99.90
42141;DHT22;27809;51.864;5.646;2024-02-15T02:50:24;12.10;99.90
42141;DHT22;27809;51.864;5.646;2024-02-15T02:52:50;12.00;99.90
42141;DHT22;27809;51.864;5.646;2024-02-15T02:55:16;11.90;99.90
42141;DHT22;27809;51.864;5.646;2024-02-15T02:57:42;11.80;99.90
42141;DHT22;27809;51.864;5.646;2024-02-15T03:00:09;11.80;99.90
42141;DHT22;27809;51.864;5.646;2024-02-15T03:02:45;11.70;99.90
42141;DHT22;27809;51.864;5.646;2024-02-15T03:05:11;11.60;99.90
42141;DHT22;27809;51.864;5.646;2024-02-15T03:07:38;11.60;99.90
42141;DHT22;27809;51.864;5.646;2024-02-15T03:10:06;11.50;99.90
42141;DHT22;27809;51.864;5.646;2024-02-15T03:12:34;11.50;99.90
42141;DHT22;27809;51.864;5.646;2024-02-15T03:15:04;11.50;99.90
42141;DHT22;27809;51.864;5.646;2024-02-15T03:17:33;11.50;99.90
42141;DHT22;27809;51.864;5.646;2024-02-15T03:19:58;11.50;99.90
42141;DHT22;27809;51.864;5.646;2024-02-15T03:22:25;11.60;99.90
42141;DHT22;27809;51.864;5.646;2024-02-15T03:24:51;11.60;99.90
42141;DHT22;27809;51.864;5.646;2024-02-15T03:27:17;11.60;99.90
42141;DHT22;27809;51.864;5.646;2024-02-15T03:29:43;11.60;99.90
42141;DHT22;27809;51.864;5.646;2024-02-15T03:32:08;11.60;99.90
42141;DHT22;27809;51.864;5.646;2024-02-15T03:34:36;11.70;99.90
42141;DHT22;27809;51.864;5.646;2024-02-15T03:37:02;11.70;99.90
42141;DHT22;27809;51.864;5.646;2024-02-15T03:39:29;11.70;99.90
42141;DHT22;27809;51.864;5.646;2024-02-15T03:41:55;11.70;99.90
42141;DHT22;27809;51.864;5.646;2024-02-15T03:44:22;11.80;99.90
42141;DHT22;27809;51.864;5.646;2024-02-15T03:46:51;11.80;99.90
42141;DHT22;27809;51.864;5.646;2024-02-15T03:49:18;11.80;99.90
42141;DHT22;27809;51.864;5.646;2024-02-15T03:51:43;11.90;99.90
42141;DHT22;27809;51.864;5.646;2024-02-15T03:54:13;11.90;99.90
42141;DHT22;27809;51.864;5.646;2024-02-15T03:56:49;11.90;99.90
42141;DHT22;27809;51.864;5.646;2024-02-15T03:59:21;11.90;99.90
42141;DHT22;27809;51.864;5.646;2024-02-15T04:01:53;11.90;99.90
42141;DHT22;27809;51.864;5.646;2024-02-15T04:04:19;12.00;99.90
42141;DHT22;27809;51.864;5.646;2024-02-15T04:06:51;12.00;99.90
42141;DHT22;27809;51.864;5.646;2024-02-15T04:09:17;12.10;99.90
42141;DHT22;27809;51.864;5.646;2024-02-15T04:11:44;12.10;99.90
42141;DHT22;27809;51.864;5.646;2024-02-15T04:14:12;12.10;99.90
42141;DHT22;27809;51.864;5.646;2024-02-15T04:16:38;12.00;99.90
42141;DHT22;27809;51.864;5.646;2024-02-15T04:19:03;12.10;99.90
42141;DHT22;27809;51.864;5.646;2024-02-15T04:21:29;12.10;99.90
42141;DHT22;27809;51.864;5.646;2024-02-15T04:23:56;12.10;99.90
42141;DHT22;27809;51.864;5.646;2024-02-15T04:26:22;12.10;99.90
42141;DHT22;27809;51.864;5.646;2024-02-15T04:28:55;12.10;99.90
42141;DHT22;27809;51.864;5.646;2024-02-15T04:31:21;12.10;99.90
42141;DHT22;27809;51.864;5.646;2024-02-15T04:33:55;12.10;99.90
42141;DHT22;27809;51.864;5.646;2024-02-15T04:36:23;12.10;99.90
42141;DHT22;27809;51.864;5.646;2024-02-15T04:38:51;12.20;99.90
42141;DHT22;27809;51.864;5.646;2024-02-15T04:41:17;12.20;99.90
42141;DHT22;27809;51.864;5.646;2024-02-15T04:43:49;12.20;99.90
42141;DHT22;27809;51.864;5.646;2024-02-15T04:46:14;12.30;99.90
42141;DHT22;27809;51.864;5.646;2024-02-15T04:48:41;12.20;99.90
42141;DHT22;27809;51.864;5.646;2024-02-15T04:51:11;12.30;99.90
42141;DHT22;27809;51.864;5.646;2024-02-15T04:53:37;12.30;99.90
42141;DHT22;27809;51.864;5.646;2024-02-15T04:56:07;12.30;99.90
42141;DHT22;27809;51.864;5.646;2024-02-15T04:58:42;12.30;99.90
42141;DHT22;27809;51.864;5.646;2024-02-15T05:01:16;12.30;99.90
42141;DHT22;27809;51.864;5.646;2024-02-15T05:03:43;12.30;99.90
42141;DHT22;27809;51.864;5.646;2024-02-15T05:06:09;12.30;99.90
42141;DHT22;27809;51.864;5.646;2024-02-15T05:08:35;12.30;99.90
42141;DHT22;27809;51.864;5.646;2024-02-15T05:11:03;12.30;99.90
42141;DHT22;27809;51.864;5.646;2024-02-15T05:13:30;12.30;99.90
42141;DHT22;27809;51.864;5.646;2024-02-15T05:15:56;12.30;99.90
42141;DHT22;27809;51.864;5.646;2024-02-15T05:18:21;12.30;99.90
42141;DHT22;27809;51.864;5.646;2024-02-15T05:20:47;12.30;99.90
42141;DHT22;27809;51.864;5.646;2024-02-15T05:23:13;12.30;99.90
42141;DHT22;27809;51.864;5.646;2024-02-15T05:25:40;12.30;99.90
42141;DHT22;27809;51.864;5.646;2024-02-15T05:28:06;12.30;99.90
42141;DHT22;27809;51.864;5.646;2024-02-15T05:30:33;12.30;99.90
42141;DHT22;27809;51.864;5.646;2024-02-15T05:32:59;12.30;99.90
42141;DHT22;27809;51.864;5.646;2024-02-15T05:35:25;12.30;99.90
42141;DHT22;27809;51.864;5.646;2024-02-15T05:37:52;12.30;99.90
42141;DHT22;27809;51.864;5.646;2024-02-15T05:40:18;12.30;99.90
42141;DHT22;27809;51.864;5.646;2024-02-15T05:42:45;12.30;99.90
42141;DHT22;27809;51.864;5.646;2024-02-15T05:47:51;12.30;99.90
42141;DHT22;27809;51.864;5.646;2024-02-15T05:50:18;12.30;99.90
42141;DHT22;27809;51.864;5.646;2024-02-15T05:52:47;12.30;99.90
42141;DHT22;27809;51.864;5.646;2024-02-15T05:55:12;12.30;99.90
42141;DHT22;27809;51.864;5.646;2024-02-15T05:57:43;12.30;99.90
42141;DHT22;27809;51.864;5.646;2024-02-15T06:00:09;12.40;99.90
42141;DHT22;27809;51.864;5.646;2024-02-15T06:02:35;12.40;99.90
42141;DHT22;27809;51.864;5.646;2024-02-15T06:05:01;12.40;99.90
42141;DHT22;27809;51.864;5.646;2024-02-15T06:07:27;12.40;99.90
42141;DHT22;27809;51.864;5.646;2024-02-15T06:09:53;12.30;99.90
42141;DHT22;27809;51.864;5.646;2024-02-15T06:12:19;12.30;99.90
42141;DHT22;27809;51.864;5.646;2024-02-15T06:14:45;12.30;99.90
42141;DHT22;27809;51.864;5.646;2024-02-15T06:17:11;12.30;99.90
42141;DHT22;27809;51.864;5.646;2024-02-15T06:19:37;12.30;99.90
42141;DHT22;27809;51.864;5.646;2024-02-15T06:22:03;12.30;99.90
42141;DHT22;27809;51.864;5.646;2024-02-15T06:24:29;12.30;99.90
42141;DHT22;27809;51.864;5.646;2024-02-15T06:26:55;12.40;99.90
42141;DHT22;27809;51.864;5.646;2024-02-15T06:29:25;12.40;99.90
42141;DHT22;27809;51.864;5.646;2024-02-15T06:32:10;12.40;99.90
42141;DHT22;27809;51.864;5.646;2024-02-15T06:34:54;12.40;99.90
42141;DHT22;27809;51.864;5.646;2024-02-15T06:37:39;12.40;99.90
42141;DHT22;27809;51.864;5.646;2024-02-15T06:40:24;12.40;99.90
42141;DHT22;27809;51.864;5.646;2024-02-15T06:42:50;12.30;99.90
42141;DHT22;27809;51.864;5.646;2024-02-15T06:45:16;12.40;99.90
42141;DHT22;27809;51.864;5.646;2024-02-15T06:47:43;12.40;99.90
42141;DHT22;27809;51.864;5.646;2024-02-15T06:50:13;12.40;99.90
42141;DHT22;27809;51.864;5.646;2024-02-15T06:52:42;12.40;99.90
42141;DHT22;27809;51.864;5.646;2024-02-15T06:55:09;12.40;99.90
42141;DHT22;27809;51.864;5.646;2024-02-15T06:57:37;12.40;99.90
42141;DHT22;27809;51.864;5.646;2024-02-15T07:00:06;12.40;99.90
42141;DHT22;27809;51.864;5.646;2024-02-15T07:02:35;12.40;99.90
42141;DHT22;27809;51.864;5.646;2024-02-15T07:05:00;12.40;99.90
42141;DHT22;27809;51.864;5.646;2024-02-15T07:07:28;12.40;99.90
42141;DHT22;27809;51.864;5.646;2024-02-15T07:09:54;12.40;99.90
42141;DHT22;27809;51.864;5.646;2024-02-15T07:12:19;12.40;99.90
42141;DHT22;27809;51.864;5.646;2024-02-15T07:14:47;12.50;99.90
42141;DHT22;27809;51.864;5.646;2024-02-15T07:17:13;12.50;99.90
42141;DHT22;27809;51.864;5.646;2024-02-15T07:19:44;12.50;99.90
42141;DHT22;27809;51.864;5.646;2024-02-15T07:22:10;12.50;99.90
42141;DHT22;27809;51.864;5.646;2024-02-15T07:24:36;12.50;99.90
42141;DHT22;27809;51.864;5.646;2024-02-15T07:27:04;12.50;99.90
42141;DHT22;27809;51.864;5.646;2024-02-15T07:29:30;12.50;99.90
42141;DHT22;27809;51.864;5.646;2024-02-15T07:31:58;12.50;99.90
42141;DHT22;27809;51.864;5.646;2024-02-15T07:34:24;12.50;99.90
42141;DHT22;27809;51.864;5.646;2024-02-15T07:36:51;12.50;99.90
42141;DHT22;27809;51.864;5.646;2024-02-15T07:39:17;12.50;99.90
42141;DHT22;27809;51.864;5.646;2024-02-15T07:41:53;12.50;99.90
42141;DHT22;27809;51.864;5.646;2024-02-15T07:44:18;12.50;99.90
42141;DHT22;27809;51.864;5.646;2024-02-15T07:46:45;12.50;99.90
42141;DHT22;27809;51.864;5.646;2024-02-15T07:49:11;12.50;99.90
42141;DHT22;27809;51.864;5.646;2024-02-15T07:51:36;12.50;99.90
42141;DHT22;27809;51.864;5.646;2024-02-15T07:54:03;12.50;99.90
42141;DHT22;27809;51.864;5.646;2024-02-15T07:56:28;12.50;99.90
42141;DHT22;27809;51.864;5.646;2024-02-15T07:58:54;12.50;99.90
42141;DHT22;27809;51.864;5.646;2024-02-15T08:01:20;12.50;99.90
42141;DHT22;27809;51.864;5.646;2024-02-15T08:03:49;12.50;99.90
42141;DHT22;27809;51.864;5.646;2024-02-15T08:06:16;12.50;99.90
42141;DHT22;27809;51.864;5.646;2024-02-15T08:08:43;12.60;99.90
42141;DHT22;27809;51.864;5.646;2024-02-15T08:11:11;12.60;99.90
42141;DHT22;27809;51.864;5.646;2024-02-15T08:13:50;12.60;99.90
42141;DHT22;27809;51.864;5.646;2024-02-15T08:16:20;12.60;99.90
42141;DHT22;27809;51.864;5.646;2024-02-15T08:18:50;12.70;99.90
42141;DHT22;27809;51.864;5.646;2024-02-15T08:21:30;12.70;99.90
42141;DHT22;27809;51.864;5.646;2024-02-15T08:24:01;12.70;99.90
42141;DHT22;27809;51.864;5.646;2024-02-15T08:26:37;12.70;99.90
42141;DHT22;27809;51.864;5.646;2024-02-15T08:29:09;12.70;99.90
42141;DHT22;27809;51.864;5.646;2024-02-15T08:31:35;12.70;99.90
42141;DHT22;27809;51.864;5.646;2024-02-15T08:34:04;12.70;99.90
42141;DHT22;27809;51.864;5.646;2024-02-15T08:36:35;12.70;99.90
42141;DHT22;27809;51.864;5.646;2024-02-15T08:39:01;12.70;99.90
42141;DHT22;27809;51.864;5.646;2024-02-15T08:41:27;12.70;99.90
42141;DHT22;27809;51.864;5.646;2024-02-15T08:43:53;12.70;99.90
42141;DHT22;27809;51.864;5.646;2024-02-15T08:46:19;12.80;99.90
42141;DHT22;27809;51.864;5.646;2024-02-15T08:48:45;12.80;99.90
42141;DHT22;27809;51.864;5.646;2024-02-15T08:51:12;12.80;99.90
42141;DHT22;27809;51.864;5.646;2024-02-15T08:53:38;12.80;99.90
42141;DHT22;27809;51.864;5.646;2024-02-15T08:56:06;12.80;99.90
42141;DHT22;27809;51.864;5.646;2024-02-15T08:58:34;12.80;99.90
42141;DHT22;27809;51.864;5.646;2024-02-15T09:01:00;12.80;99.90
42141;DHT22;27809;51.864;5.646;2024-02-15T09:03:26;12.80;99.90
42141;DHT22;27809;51.864;5.646;2024-02-15T09:05:51;12.80;99.90
42141;DHT22;27809;51.864;5.646;2024-02-15T09:08:17;12.80;99.90
42141;DHT22;27809;51.864;5.646;2024-02-15T09:10:47;12.80;99.90
42141;DHT22;27809;51.864;5.646;2024-02-15T09:13:12;12.90;99.90
42141;DHT22;27809;51.864;5.646;2024-02-15T09:15:38;12.90;99.90
42141;DHT22;27809;51.864;5.646;2024-02-15T09:18:04;12.90;99.90
42141;DHT22;27809;51.864;5.646;2024-02-15T09:20:30;12.80;99.90
42141;DHT22;27809;51.864;5.646;2024-02-15T09:22:57;12.90;99.90
42141;DHT22;27809;51.864;5.646;2024-02-15T09:25:23;12.90;99.90
42141;DHT22;27809;51.864;5.646;2024-02-15T09:27:49;12.90;99.90
42141;DHT22;27809;51.864;5.646;2024-02-15T09:30:16;12.90;99.90
42141;DHT22;27809;51.864;5.646;2024-02-15T09:32:43;13.00;99.90
42141;DHT22;27809;51.864;5.646;2024-02-15T09:35:10;13.00;99.90
42141;DHT22;27809;51.864;5.646;2024-02-15T09:37:47;13.00;99.90
42141;DHT22;27809;51.864;5.646;2024-02-15T09:40:16;13.00;99.90
42141;DHT22;27809;51.864;5.646;2024-02-15T09:42:43;13.00;99.90
42141;DHT22;27809;51.864;5.646;2024-02-15T09:45:13;13.10;99.90
42141;DHT22;27809;51.864;5.646;2024-02-15T09:47:40;13.10;99.90
42141;DHT22;27809;51.864;5.646;2024-02-15T09:50:13;13.20;99.90
42141;DHT22;27809;51.864;5.646;2024-02-15T09:52:59;13.40;99.90
42141;DHT22;27809;51.864;5.646;2024-02-15T09:55:28;13.50;99.90
42141;DHT22;27809;51.864;5.646;2024-02-15T09:57:55;13.50;99.90
42141;DHT22;27809;51.864;5.646;2024-02-15T10:00:20;13.50;99.90
42141;DHT22;27809;51.864;5.646;2024-02-15T10:02:52;13.50;99.90
42141;DHT22;27809;51.864;5.646;2024-02-15T10:05:18;13.50;99.90
42141;DHT22;27809;51.864;5.646;2024-02-15T10:07:45;13.50;99.90
42141;DHT22;27809;51.864;5.646;2024-02-15T10:10:22;13.50;99.90
42141;DHT22;27809;51.864;5.646;2024-02-15T10:12:51;13.50;99.90
42141;DHT22;27809;51.864;5.646;2024-02-15T10:15:37;13.40;99.90
42141;DHT22;27809;51.864;5.646;2024-02-15T10:18:05;13.40;99.90
42141;DHT22;27809;51.864;5.646;2024-02-15T10:20:33;13.40;99.90
42141;DHT22;27809;51.864;5.646;2024-02-15T10:25:29;13.40;99.90
42141;DHT22;27809;51.864;5.646;2024-02-15T10:28:27;13.40;99.90
42141;DHT22;27809;51.864;5.646;2024-02-15T10:30:54;13.50;99.90
42141;DHT22;27809;51.864;5.646;2024-02-15T10:33:26;13.50;99.90
42141;DHT22;27809;51.864;5.646;2024-02-15T10:36:10;13.50;99.90
42141;DHT22;27809;51.864;5.646;2024-02-15T10:38:37;13.50;99.90
42141;DHT22;27809;51.864;5.646;2024-02-15T10:41:04;13.60;99.90
42141;DHT22;27809;51.864;5.646;2024-02-15T10:43:36;13.60;99.90
42141;DHT22;27809;51.864;5.646;2024-02-15T10:46:04;13.60;99.90
42141;DHT22;27809;51.864;5.646;2024-02-15T10:48:31;13.60;99.90
42141;DHT22;27809;51.864;5.646;2024-02-15T10:50:59;13.60;99.90
42141;DHT22;27809;51.864;5.646;2024-02-15T10:53:30;13.70;99.90
42141;DHT22;27809;51.864;5.646;2024-02-15T10:58:33;13.70;99.90
42141;DHT22;27809;51.864;5.646;2024-02-15T11:01:06;13.70;99.90
42141;DHT22;27809;51.864;5.646;2024-02-15T11:03:36;13.80;99.90
42141;DHT22;27809;51.864;5.646;2024-02-15T11:06:02;13.80;99.90
42141;DHT22;27809;51.864;5.646;2024-02-15T11:08:32;13.80;99.90
42141;DHT22;27809;51.864;5.646;2024-02-15T11:10:58;13.90;99.90
42141;DHT22;27809;51.864;5.646;2024-02-15T11:13:24;13.90;99.90
42141;DHT22;27809;51.864;5.646;2024-02-15T11:15:50;13.90;99.90
42141;DHT22;27809;51.864;5.646;2024-02-15T11:18:47;14.00;99.90
42141;DHT22;27809;51.864;5.646;2024-02-15T11:21:17;14.00;99.90
42141;DHT22;27809;51.864;5.646;2024-02-15T11:23:43;14.00;99.90
42141;DHT22;27809;51.864;5.646;2024-02-15T11:26:46;14.10;99.90
42141;DHT22;27809;51.864;5.646;2024-02-15T11:32:36;14.00;99.90
42141;DHT22;27809;51.864;5.646;2024-02-15T11:35:09;14.00;99.90
42141;DHT22;27809;51.864;5.646;2024-02-15T11:40:16;14.00;99.90
42141;DHT22;27809;51.864;5.646;2024-02-15T11:42:43;14.00;99.90
42141;DHT22;27809;51.864;5.646;2024-02-15T11:45:08;14.10;99.90
42141;DHT22;27809;51.864;5.646;2024-02-15T11:47:37;14.20;99.90
42141;DHT22;27809;51.864;5.646;2024-02-15T11:50:08;14.20;99.90
42141;DHT22;27809;51.864;5.646;2024-02-15T11:52:38;14.30;99.90
42141;DHT22;27809;51.864;5.646;2024-02-15T11:55:05;14.40;99.90
42141;DHT22;27809;51.864;5.646;2024-02-15T11:57:41;14.50;99.90
42141;DHT22;27809;51.864;5.646;2024-02-15T12:00:25;14.60;99.90
42141;DHT22;27809;51.864;5.646;2024-02-15T12:03:10;14.60;99.90
42141;DHT22;27809;51.864;5.646;2024-02-15T12:05:55;14.70;99.90
42141;DHT22;27809;51.864;5.646;2024-02-15T12:08:40;14.70;99.90
42141;DHT22;27809;51.864;5.646;2024-02-15T12:11:27;14.80;99.90
42141;DHT22;27809;51.864;5.646;2024-02-15T12:14:15;14.80;99.90
42141;DHT22;27809;51.864;5.646;2024-02-15T12:17:07;14.80;99.90
42141;DHT22;27809;51.864;5.646;2024-02-15T12:19:53;14.80;99.90
42141;DHT22;27809;51.864;5.646;2024-02-15T12:24:55;14.90;99.90
42141;DHT22;27809;51.864;5.646;2024-02-15T12:27:21;15.00;99.90
42141;DHT22;27809;51.864;5.646;2024-02-15T12:29:57;15.00;99.90
42141;DHT22;27809;51.864;5.646;2024-02-15T12:32:24;15.00;99.90
42141;DHT22;27809;51.864;5.646;2024-02-15T12:35:08;15.00;99.90
42141;DHT22;27809;51.864;5.646;2024-02-15T12:37:35;15.10;99.90
42141;DHT22;27809;51.864;5.646;2024-02-15T12:40:21;15.20;99.90
42141;DHT22;27809;51.864;5.646;2024-02-15T12:42:48;15.30;99.90
42141;DHT22;27809;51.864;5.646;2024-02-15T12:45:20;15.30;99.90
42141;DHT22;27809;51.864;5.646;2024-02-15T12:47:47;15.40;99.90
42141;DHT22;27809;51.864;5.646;2024-02-15T12:50:14;15.40;99.90
42141;DHT22;27809;51.864;5.646;2024-02-15T12:52:40;15.40;99.90
42141;DHT22;27809;51.864;5.646;2024-02-15T12:57:54;15.40;99.90
42141;DHT22;27809;51.864;5.646;2024-02-15T13:00:25;15.40;99.90
42141;DHT22;27809;51.864;5.646;2024-02-15T13:02:55;15.40;99.90
42141;DHT22;27809;51.864;5.646;2024-02-15T13:05:22;15.40;99.90
42141;DHT22;27809;51.864;5.646;2024-02-15T13:07:49;15.40;99.90
42141;DHT22;27809;51.864;5.646;2024-02-15T13:10:15;15.40;99.90
42141;DHT22;27809;51.864;5.646;2024-02-15T13:12:42;15.50;99.90
42141;DHT22;27809;51.864;5.646;2024-02-15T13:15:09;15.50;99.90
42141;DHT22;27809;51.864;5.646;2024-02-15T13:17:40;15.50;99.90
42141;DHT22;27809;51.864;5.646;2024-02-15T13:20:06;15.60;99.90
42141;DHT22;27809;51.864;5.646;2024-02-15T13:22:36;15.60;99.90
42141;DHT22;27809;51.864;5.646;2024-02-15T13:25:05;15.60;99.90
42141;DHT22;27809;51.864;5.646;2024-02-15T13:27:33;15.70;99.90
42141;DHT22;27809;51.864;5.646;2024-02-15T13:29:58;15.70;99.90
42141;DHT22;27809;51.864;5.646;2024-02-15T13:32:24;15.70;99.90
42141;DHT22;27809;51.864;5.646;2024-02-15T13:34:50;15.80;99.90
42141;DHT22;27809;51.864;5.646;2024-02-15T13:37:18;15.80;99.90
42141;DHT22;27809;51.864;5.646;2024-02-15T13:39:49;15.80;99.90
42141;DHT22;27809;51.864;5.646;2024-02-15T13:42:15;15.80;99.90
42141;DHT22;27809;51.864;5.646;2024-02-15T13:44:45;15.90;99.90
42141;DHT22;27809;51.864;5.646;2024-02-15T13:47:11;15.90;99.90
42141;DHT22;27809;51.864;5.646;2024-02-15T13:49:38;15.90;99.90
42141;DHT22;27809;51.864;5.646;2024-02-15T13:52:05;16.00;99.90
42141;DHT22;27809;51.864;5.646;2024-02-15T13:54:31;16.10;99.90
42141;DHT22;27809;51.864;5.646;2024-02-15T13:56:58;16.20;99.90
42141;DHT22;27809;51.864;5.646;2024-02-15T13:59:26;16.40;99.90
42141;DHT22;27809;51.864;5.646;2024-02-15T14:01:52;17.10;99.90
42141;DHT22;27809;51.864;5.646;2024-02-15T14:04:18;17.60;99.90
42141;DHT22;27809;51.864;5.646;2024-02-15T14:06:44;18.10;99.90
42141;DHT22;27809;51.864;5.646;2024-02-15T14:09:10;18.20;99.90
42141;DHT22;27809;51.864;5.646;2024-02-15T14:11:39;18.10;99.90
42141;DHT22;27809;51.864;5.646;2024-02-15T14:14:07;17.90;99.90
42141;DHT22;27809;51.864;5.646;2024-02-15T14:16:33;17.70;99.90
42141;DHT22;27809;51.864;5.646;2024-02-15T14:18:59;17.60;99.90
42141;DHT22;27809;51.864;5.646;2024-02-15T14:21:25;17.50;99.90
42141;DHT22;27809;51.864;5.646;2024-02-15T14:23:51;17.30;99.90
42141;DHT22;27809;51.864;5.646;2024-02-15T14:26:17;17.20;99.90
42141;DHT22;27809;51.864;5.646;2024-02-15T14:28:43;17.10;99.90
42141;DHT22;27809;51.864;5.646;2024-02-15T14:31:11;17.00;99.90
42141;DHT22;27809;51.864;5.646;2024-02-15T14:33:55;16.90;99.90
42141;DHT22;27809;51.864;5.646;2024-02-15T14:36:21;16.80;99.90
42141;DHT22;27809;51.864;5.646;2024-02-15T14:38:47;16.80;99.90
42141;DHT22;27809;51.864;5.646;2024-02-15T14:41:12;16.80;99.90
42141;DHT22;27809;51.864;5.646;2024-02-15T14:43:38;16.80;99.90
42141;DHT22;27809;51.864;5.646;2024-02-15T14:46:03;16.80;99.90
42141;DHT22;27809;51.864;5.646;2024-02-15T14:48:34;16.70;99.90
42141;DHT22;27809;51.864;5.646;2024-02-15T14:51:00;16.70;99.90
42141;DHT22;27809;51.864;5.646;2024-02-15T14:53:26;16.70;99.90
42141;DHT22;27809;51.864;5.646;2024-02-15T14:55:52;16.70;99.90
42141;DHT22;27809;51.864;5.646;2024-02-15T14:58:19;16.60;99.90
42141;DHT22;27809;51.864;5.646;2024-02-15T15:00:46;16.60;99.90
42141;DHT22;27809;51.864;5.646;2024-02-15T15:03:12;16.60;99.90
42141;DHT22;27809;51.864;5.646;2024-02-15T15:05:42;16.60;99.90
42141;DHT22;27809;51.864;5.646;2024-02-15T15:08:26;16.50;99.90
42141;DHT22;27809;51.864;5.646;2024-02-15T15:11:11;16.50;99.90
42141;DHT22;27809;51.864;5.646;2024-02-15T15:13:55;16.50;99.90
42141;DHT22;27809;51.864;5.646;2024-02-15T15:16:21;16.40;99.90
42141;DHT22;27809;51.864;5.646;2024-02-15T15:18:50;16.40;99.90
42141;DHT22;27809;51.864;5.646;2024-02-15T15:21:17;16.40;99.90
42141;DHT22;27809;51.864;5.646;2024-02-15T15:23:43;16.40;99.90
42141;DHT22;27809;51.864;5.646;2024-02-15T15:26:09;16.30;99.90
42141;DHT22;27809;51.864;5.646;2024-02-15T15:28:39;16.30;99.90
42141;DHT22;27809;51.864;5.646;2024-02-15T15:31:05;16.30;99.90
42141;DHT22;27809;51.864;5.646;2024-02-15T15:33:32;16.20;99.90
42141;DHT22;27809;51.864;5.646;2024-02-15T15:35:59;16.20;99.90
42141;DHT22;27809;51.864;5.646;2024-02-15T15:38:25;16.20;99.90
42141;DHT22;27809;51.864;5.646;2024-02-15T15:40:52;16.20;99.90
42141;DHT22;27809;51.864;5.646;2024-02-15T15:43:18;16.20;99.90
42141;DHT22;27809;51.864;5.646;2024-02-15T15:45:45;16.20;99.90
42141;DHT22;27809;51.864;5.646;2024-02-15T15:48:11;16.10;99.90
42141;DHT22;27809;51.864;5.646;2024-02-15T15:50:37;16.20;99.90
42141;DHT22;27809;51.864;5.646;2024-02-15T15:53:06;16.50;99.90
42141;DHT22;27809;51.864;5.646;2024-02-15T15:55:32;16.80;99.90
42141;DHT22;27809;51.864;5.646;2024-02-15T15:57:58;16.80;99.90